sensor_id;sensor_type;location;lat;lon;timestamp;P1;durP1;ratioP1;P2;durP2;ratioP2
7231;SDS011;3657;49.630;11.018;2023-04-21T00:01:47;24.47;;;22.63;;
7231;SDS011;3657;49.630;11.018;2023-04-21T00:04:13;28.90;;;26.43;;
7231;SDS011;3657;49.630;11.018;2023-04-21T00:06:41;29.37;;;26.87;;
7231;SDS011;3657;49.630;11.018;2023-04-21T00:09:08;30.80;;;28.10;;
7231;SDS011;3657;49.630;11.018;2023-04-21T00:11:35;21.00;;;19.40;;
7231;SDS011;3657;49.630;11.018;2023-04-21T00:14:02;21.27;;;19.83;;
7231;SDS011;3657;49.630;11.018;2023-04-21T00:16:28;19.97;;;18.63;;
7231;SDS011;3657;49.630;11.018;2023-04-21T00:18:56;21.17;;;19.60;;
7231;SDS011;3657;49.630;11.018;2023-04-21T00:21:23;22.23;;;20.67;;
7231;SDS011;3657;49.630;11.018;2023-04-21T00:23:50;26.17;;;24.13;;
7231;SDS011;3657;49.630;11.018;2023-04-21T00:26:17;20.67;;;19.20;;
7231;SDS011;3657;49.630;11.018;2023-04-21T00:28:45;20.03;;;18.73;;
7231;SDS011;3657;49.630;11.018;2023-04-21T00:31:11;28.20;;;25.77;;
7231;SDS011;3657;49.630;11.018;2023-04-21T00:33:38;25.90;;;23.70;;
7231;SDS011;3657;49.630;11.018;2023-04-21T00:36:06;20.40;;;19.00;;
7231;SDS011;3657;49.630;11.018;2023-04-21T00:38:33;20.07;;;18.77;;
7231;SDS011;3657;49.630;11.018;2023-04-21T00:41:00;19.27;;;17.97;;
7231;SDS011;3657;49.630;11.018;2023-04-21T00:43:27;24.20;;;22.20;;
7231;SDS011;3657;49.630;11.018;2023-04-21T00:45:53;21.57;;;20.10;;
7231;SDS011;3657;49.630;11.018;2023-04-21T00:48:20;19.90;;;18.60;;
7231;SDS011;3657;49.630;11.018;2023-04-21T00:50:47;18.67;;;17.53;;
7231;SDS011;3657;49.630;11.018;2023-04-21T00:53:15;20.93;;;19.53;;
7231;SDS011;3657;49.630;11.018;2023-04-21T00:55:42;29.10;;;26.50;;
7231;SDS011;3657;49.630;11.018;2023-04-21T00:58:09;26.37;;;24.20;;
7231;SDS011;3657;49.630;11.018;2023-04-21T01:00:36;21.10;;;19.63;;
7231;SDS011;3657;49.630;11.018;2023-04-21T01:03:04;31.87;;;28.93;;
7231;SDS011;3657;49.630;11.018;2023-04-21T01:05:31;31.00;;;27.90;;
7231;SDS011;3657;49.630;11.018;2023-04-21T01:07:58;31.70;;;28.90;;
7231;SDS011;3657;49.630;11.018;2023-04-21T01:10:28;32.33;;;29.50;;
7231;SDS011;3657;49.630;11.018;2023-04-21T01:12:55;33.27;;;30.03;;
7231;SDS011;3657;49.630;11.018;2023-04-21T01:15:21;32.33;;;29.37;;
7231;SDS011;3657;49.630;11.018;2023-04-21T01:17:48;26.83;;;24.60;;
7231;SDS011;3657;49.630;11.018;2023-04-21T01:20:18;27.87;;;25.60;;
7231;SDS011;3657;49.630;11.018;2023-04-21T01:22:46;26.30;;;24.07;;
7231;SDS011;3657;49.630;11.018;2023-04-21T01:25:15;31.00;;;28.40;;
7231;SDS011;3657;49.630;11.018;2023-04-21T01:27:42;25.33;;;23.17;;
7231;SDS011;3657;49.630;11.018;2023-04-21T01:30:09;21.53;;;19.93;;
7231;SDS011;3657;49.630;11.018;2023-04-21T01:32:36;28.10;;;25.80;;
7231;SDS011;3657;49.630;11.018;2023-04-21T01:35:03;30.97;;;28.13;;
7231;SDS011;3657;49.630;11.018;2023-04-21T01:37:31;20.80;;;19.37;;
7231;SDS011;3657;49.630;11.018;2023-04-21T01:40:01;23.30;;;21.50;;
7231;SDS011;3657;49.630;11.018;2023-04-21T01:42:30;31.00;;;28.10;;
7231;SDS011;3657;49.630;11.018;2023-04-21T01:44:57;23.03;;;21.23;;
7231;SDS011;3657;49.630;11.018;2023-04-21T01:47:24;19.33;;;18.13;;
7231;SDS011;3657;49.630;11.018;2023-04-21T01:49:51;19.67;;;18.27;;
7231;SDS011;3657;49.630;11.018;2023-04-21T01:52:18;23.37;;;21.53;;
7231;SDS011;3657;49.630;11.018;2023-04-21T01:54:45;20.37;;;18.97;;
7231;SDS011;3657;49.630;11.018;2023-04-21T01:57:13;21.10;;;19.63;;
7231;SDS011;3657;49.630;11.018;2023-04-21T01:59:40;19.37;;;17.97;;
7231;SDS011;3657;49.630;11.018;2023-04-21T02:02:06;18.83;;;17.73;;
7231;SDS011;3657;49.630;11.018;2023-04-21T02:04:33;20.10;;;18.80;;
7231;SDS011;3657;49.630;11.018;2023-04-21T02:07:00;19.43;;;18.23;;
7231;SDS011;3657;49.630;11.018;2023-04-21T02:09:27;18.97;;;17.70;;
7231;SDS011;3657;49.630;11.018;2023-04-21T02:11:54;19.97;;;18.57;;
7231;SDS011;3657;49.630;11.018;2023-04-21T02:14:23;19.50;;;18.20;;
7231;SDS011;3657;49.630;11.018;2023-04-21T02:16:50;19.50;;;18.00;;
7231;SDS011;3657;49.630;11.018;2023-04-21T02:19:16;19.90;;;18.50;;
7231;SDS011;3657;49.630;11.018;2023-04-21T02:21:43;19.97;;;18.63;;
7231;SDS011;3657;49.630;11.018;2023-04-21T02:24:10;20.43;;;18.93;;
7231;SDS011;3657;49.630;11.018;2023-04-21T02:26:37;21.60;;;19.90;;
7231;SDS011;3657;49.630;11.018;2023-04-21T02:29:04;21.60;;;19.93;;
7231;SDS011;3657;49.630;11.018;2023-04-21T02:31:32;21.17;;;19.73;;
7231;SDS011;3657;49.630;11.018;2023-04-21T02:33:58;20.57;;;19.13;;
7231;SDS011;3657;49.630;11.018;2023-04-21T02:36:25;21.40;;;19.90;;
7231;SDS011;3657;49.630;11.018;2023-04-21T02:38:52;23.80;;;22.00;;
7231;SDS011;3657;49.630;11.018;2023-04-21T02:41:18;21.53;;;19.97;;
7231;SDS011;3657;49.630;11.018;2023-04-21T02:43:47;24.03;;;22.03;;
7231;SDS011;3657;49.630;11.018;2023-04-21T02:46:13;20.27;;;18.87;;
7231;SDS011;3657;49.630;11.018;2023-04-21T02:48:41;21.03;;;19.57;;
7231;SDS011;3657;49.630;11.018;2023-04-21T02:51:10;24.67;;;22.77;;
7231;SDS011;3657;49.630;11.018;2023-04-21T02:53:37;25.63;;;23.53;;
7231;SDS011;3657;49.630;11.018;2023-04-21T02:56:04;20.03;;;18.73;;
7231;SDS011;3657;49.630;11.018;2023-04-21T02:58:32;21.83;;;20.20;;
7231;SDS011;3657;49.630;11.018;2023-04-21T03:00:59;20.57;;;19.17;;
7231;SDS011;3657;49.630;11.018;2023-04-21T03:03:26;26.20;;;24.10;;
7231;SDS011;3657;49.630;11.018;2023-04-21T03:05:56;29.73;;;27.07;;
7231;SDS011;3657;49.630;11.018;2023-04-21T03:08:23;21.80;;;20.20;;
7231;SDS011;3657;49.630;11.018;2023-04-21T03:10:50;19.37;;;18.07;;
7231;SDS011;3657;49.630;11.018;2023-04-21T03:13:16;20.50;;;19.20;;
7231;SDS011;3657;49.630;11.018;2023-04-21T03:15:43;20.87;;;19.27;;
7231;SDS011;3657;49.630;11.018;2023-04-21T03:18:10;20.10;;;18.73;;
7231;SDS011;3657;49.630;11.018;2023-04-21T03:20:36;22.13;;;20.53;;
7231;SDS011;3657;49.630;11.018;2023-04-21T03:23:05;20.90;;;19.37;;
7231;SDS011;3657;49.630;11.018;2023-04-21T03:25:31;21.00;;;19.50;;
7231;SDS011;3657;49.630;11.018;2023-04-21T03:27:58;20.33;;;18.93;;
7231;SDS011;3657;49.630;11.018;2023-04-21T03:30:25;20.57;;;19.20;;
7231;SDS011;3657;49.630;11.018;2023-04-21T03:32:51;20.30;;;18.90;;
7231;SDS011;3657;49.630;11.018;2023-04-21T03:35:19;18.87;;;17.67;;
7231;SDS011;3657;49.630;11.018;2023-04-21T03:37:46;19.77;;;18.40;;
7231;SDS011;3657;49.630;11.018;2023-04-21T03:40:15;23.60;;;21.70;;
7231;SDS011;3657;49.630;11.018;2023-04-21T03:42:41;19.80;;;18.40;;
7231;SDS011;3657;49.630;11.018;2023-04-21T03:45:08;19.90;;;18.60;;
7231;SDS011;3657;49.630;11.018;2023-04-21T03:47:35;20.03;;;18.63;;
7231;SDS011;3657;49.630;11.018;2023-04-21T03:50:02;18.77;;;17.47;;
7231;SDS011;3657;49.630;11.018;2023-04-21T03:52:29;20.47;;;18.97;;
7231;SDS011;3657;49.630;11.018;2023-04-21T03:54:57;21.43;;;19.73;;
7231;SDS011;3657;49.630;11.018;2023-04-21T03:57:26;31.47;;;28.53;;
7231;SDS011;3657;49.630;11.018;2023-04-21T03:59:52;21.40;;;19.70;;
7231;SDS011;3657;49.630;11.018;2023-04-21T04:02:19;21.50;;;19.90;;
7231;SDS011;3657;49.630;11.018;2023-04-21T04:04:45;20.13;;;18.73;;
7231;SDS011;3657;49.630;11.018;2023-04-21T04:07:12;22.50;;;20.70;;
7231;SDS011;3657;49.630;11.018;2023-04-21T04:09:41;20.67;;;19.23;;
7231;SDS011;3657;49.630;11.018;2023-04-21T04:12:08;21.40;;;19.77;;
7231;SDS011;3657;49.630;11.018;2023-04-21T04:14:36;19.43;;;18.17;;
7231;SDS011;3657;49.630;11.018;2023-04-21T04:17:03;20.37;;;18.90;;
7231;SDS011;3657;49.630;11.018;2023-04-21T04:19:30;19.77;;;18.47;;
7231;SDS011;3657;49.630;11.018;2023-04-21T04:21:57;19.77;;;18.27;;
7231;SDS011;3657;49.630;11.018;2023-04-21T04:24:24;20.10;;;18.77;;
7231;SDS011;3657;49.630;11.018;2023-04-21T04:26:51;19.70;;;18.40;;
7231;SDS011;3657;49.630;11.018;2023-04-21T04:29:18;20.27;;;18.90;;
7231;SDS011;3657;49.630;11.018;2023-04-21T04:31:47;19.03;;;17.67;;
7231;SDS011;3657;49.630;11.018;2023-04-21T04:34:14;18.90;;;17.70;;
7231;SDS011;3657;49.630;11.018;2023-04-21T04:36:41;19.43;;;18.10;;
7231;SDS011;3657;49.630;11.018;2023-04-21T04:39:08;20.90;;;19.30;;
7231;SDS011;3657;49.630;11.018;2023-04-21T04:41:36;20.70;;;19.20;;
7231;SDS011;3657;49.630;11.018;2023-04-21T04:44:03;21.37;;;19.70;;
7231;SDS011;3657;49.630;11.018;2023-04-21T04:46:30;21.30;;;19.80;;
7231;SDS011;3657;49.630;11.018;2023-04-21T04:48:58;22.20;;;20.40;;
7231;SDS011;3657;49.630;11.018;2023-04-21T04:51:25;20.17;;;18.77;;
7231;SDS011;3657;49.630;11.018;2023-04-21T04:53:52;21.90;;;20.27;;
7231;SDS011;3657;49.630;11.018;2023-04-21T04:56:19;21.20;;;19.60;;
7231;SDS011;3657;49.630;11.018;2023-04-21T04:58:46;20.90;;;19.30;;
7231;SDS011;3657;49.630;11.018;2023-04-21T05:01:12;21.27;;;19.63;;
7231;SDS011;3657;49.630;11.018;2023-04-21T05:03:39;19.30;;;17.90;;
7231;SDS011;3657;49.630;11.018;2023-04-21T05:06:08;21.23;;;19.73;;
7231;SDS011;3657;49.630;11.018;2023-04-21T05:08:35;20.90;;;18.90;;
7231;SDS011;3657;49.630;11.018;2023-04-21T05:11:01;17.70;;;16.60;;
7231;SDS011;3657;49.630;11.018;2023-04-21T05:13:28;19.60;;;18.30;;
7231;SDS011;3657;49.630;11.018;2023-04-21T05:15:55;19.33;;;18.03;;
7231;SDS011;3657;49.630;11.018;2023-04-21T05:18:23;22.17;;;20.47;;
7231;SDS011;3657;49.630;11.018;2023-04-21T05:20:49;19.23;;;17.93;;
7231;SDS011;3657;49.630;11.018;2023-04-21T05:23:17;19.97;;;18.60;;
7231;SDS011;3657;49.630;11.018;2023-04-21T05:25:44;18.73;;;17.43;;
7231;SDS011;3657;49.630;11.018;2023-04-21T05:28:11;18.83;;;17.53;;
7231;SDS011;3657;49.630;11.018;2023-04-21T05:30:38;17.53;;;16.43;;
7231;SDS011;3657;49.630;11.018;2023-04-21T05:33:05;17.53;;;16.33;;
7231;SDS011;3657;49.630;11.018;2023-04-21T05:35:33;18.63;;;17.43;;
7231;SDS011;3657;49.630;11.018;2023-04-21T05:38:00;17.90;;;16.70;;
7231;SDS011;3657;49.630;11.018;2023-04-21T05:40:28;25.10;;;23.00;;
7231;SDS011;3657;49.630;11.018;2023-04-21T05:42:55;18.60;;;17.40;;
7231;SDS011;3657;49.630;11.018;2023-04-21T05:45:21;18.90;;;17.70;;
7231;SDS011;3657;49.630;11.018;2023-04-21T05:47:48;23.23;;;21.40;;
7231;SDS011;3657;49.630;11.018;2023-04-21T05:50:14;35.00;;;31.87;;
7231;SDS011;3657;49.630;11.018;2023-04-21T05:52:41;27.77;;;25.33;;
7231;SDS011;3657;49.630;11.018;2023-04-21T05:55:08;31.60;;;28.63;;
7231;SDS011;3657;49.630;11.018;2023-04-21T05:57:35;20.37;;;18.97;;
7231;SDS011;3657;49.630;11.018;2023-04-21T06:00:03;30.23;;;27.67;;
7231;SDS011;3657;49.630;11.018;2023-04-21T06:02:31;26.37;;;24.20;;
7231;SDS011;3657;49.630;11.018;2023-04-21T06:04:57;21.93;;;20.07;;
7231;SDS011;3657;49.630;11.018;2023-04-21T06:07:24;27.67;;;25.03;;
7231;SDS011;3657;49.630;11.018;2023-04-21T06:09:50;20.93;;;19.40;;
7231;SDS011;3657;49.630;11.018;2023-04-21T06:12:17;42.17;;;33.57;;
7231;SDS011;3657;49.630;11.018;2023-04-21T06:14:45;23.57;;;21.77;;
7231;SDS011;3657;49.630;11.018;2023-04-21T06:17:14;32.50;;;29.07;;
7231;SDS011;3657;49.630;11.018;2023-04-21T06:19:41;24.27;;;22.27;;
7231;SDS011;3657;49.630;11.018;2023-04-21T06:22:08;27.37;;;24.87;;
7231;SDS011;3657;49.630;11.018;2023-04-21T06:24:35;25.70;;;23.47;;
7231;SDS011;3657;49.630;11.018;2023-04-21T06:27:01;28.03;;;25.47;;
7231;SDS011;3657;49.630;11.018;2023-04-21T06:29:28;27.90;;;25.57;;
7231;SDS011;3657;49.630;11.018;2023-04-21T06:31:56;27.77;;;25.23;;
7231;SDS011;3657;49.630;11.018;2023-04-21T06:34:22;26.80;;;24.60;;
7231;SDS011;3657;49.630;11.018;2023-04-21T06:36:49;26.00;;;24.00;;
7231;SDS011;3657;49.630;11.018;2023-04-21T06:39:16;25.17;;;23.17;;
7231;SDS011;3657;49.630;11.018;2023-04-21T06:41:42;25.87;;;23.77;;
7231;SDS011;3657;49.630;11.018;2023-04-21T06:44:09;25.93;;;23.77;;
7231;SDS011;3657;49.630;11.018;2023-04-21T06:46:38;23.87;;;21.77;;
7231;SDS011;3657;49.630;11.018;2023-04-21T06:49:06;22.20;;;20.40;;
7231;SDS011;3657;49.630;11.018;2023-04-21T06:51:32;23.57;;;21.50;;
7231;SDS011;3657;49.630;11.018;2023-04-21T06:53:59;24.70;;;22.53;;
7231;SDS011;3657;49.630;11.018;2023-04-21T06:56:26;24.53;;;22.23;;
7231;SDS011;3657;49.630;11.018;2023-04-21T06:58:53;22.17;;;20.37;;
7231;SDS011;3657;49.630;11.018;2023-04-21T07:01:20;23.93;;;21.93;;
7231;SDS011;3657;49.630;11.018;2023-04-21T07:03:48;24.83;;;22.57;;
7231;SDS011;3657;49.630;11.018;2023-04-21T07:06:16;22.27;;;20.43;;
7231;SDS011;3657;49.630;11.018;2023-04-21T07:09:13;24.47;;;22.53;;
7231;SDS011;3657;49.630;11.018;2023-04-21T07:11:40;22.40;;;20.50;;
7231;SDS011;3657;49.630;11.018;2023-04-21T07:14:06;22.27;;;20.47;;
7231;SDS011;3657;49.630;11.018;2023-04-21T07:16:33;23.90;;;21.70;;
7231;SDS011;3657;49.630;11.018;2023-04-21T07:19:00;21.90;;;20.20;;
7231;SDS011;3657;49.630;11.018;2023-04-21T07:21:28;23.43;;;21.30;;
7231;SDS011;3657;49.630;11.018;2023-04-21T07:23:56;22.70;;;20.90;;
7231;SDS011;3657;49.630;11.018;2023-04-21T07:26:23;19.63;;;18.20;;
7231;SDS011;3657;49.630;11.018;2023-04-21T07:28:49;20.90;;;19.43;;
7231;SDS011;3657;49.630;11.018;2023-04-21T07:31:16;20.00;;;18.57;;
7231;SDS011;3657;49.630;11.018;2023-04-21T07:33:43;19.93;;;18.60;;
7231;SDS011;3657;49.630;11.018;2023-04-21T07:36:10;19.77;;;18.37;;
7231;SDS011;3657;49.630;11.018;2023-04-21T07:38:38;21.70;;;20.27;;
7231;SDS011;3657;49.630;11.018;2023-04-21T07:41:07;21.07;;;19.47;;
7231;SDS011;3657;49.630;11.018;2023-04-21T07:43:34;18.87;;;17.63;;
7231;SDS011;3657;49.630;11.018;2023-04-21T07:46:00;20.20;;;18.83;;
7231;SDS011;3657;49.630;11.018;2023-04-21T07:48:27;20.33;;;18.60;;
7231;SDS011;3657;49.630;11.018;2023-04-21T07:50:54;20.47;;;18.97;;
7231;SDS011;3657;49.630;11.018;2023-04-21T07:53:22;20.30;;;18.83;;
7231;SDS011;3657;49.630;11.018;2023-04-21T07:55:50;19.67;;;18.40;;
7231;SDS011;3657;49.630;11.018;2023-04-21T07:58:17;19.33;;;18.17;;
7231;SDS011;3657;49.630;11.018;2023-04-21T08:00:43;20.00;;;18.50;;
7231;SDS011;3657;49.630;11.018;2023-04-21T08:03:10;19.27;;;17.97;;
7231;SDS011;3657;49.630;11.018;2023-04-21T08:05:36;19.17;;;18.07;;
7231;SDS011;3657;49.630;11.018;2023-04-21T08:08:03;18.13;;;16.77;;
7231;SDS011;3657;49.630;11.018;2023-04-21T08:10:31;18.77;;;17.50;;
7231;SDS011;3657;49.630;11.018;2023-04-21T08:12:59;17.43;;;16.33;;
7231;SDS011;3657;49.630;11.018;2023-04-21T08:15:27;18.47;;;17.33;;
7231;SDS011;3657;49.630;11.018;2023-04-21T08:17:53;17.00;;;16.07;;
7231;SDS011;3657;49.630;11.018;2023-04-21T08:20:20;19.00;;;17.60;;
7231;SDS011;3657;49.630;11.018;2023-04-21T08:22:47;16.73;;;15.63;;
7231;SDS011;3657;49.630;11.018;2023-04-21T08:25:13;18.03;;;16.83;;
7231;SDS011;3657;49.630;11.018;2023-04-21T08:27:40;15.90;;;14.90;;
7231;SDS011;3657;49.630;11.018;2023-04-21T08:30:09;17.00;;;16.03;;
7231;SDS011;3657;49.630;11.018;2023-04-21T08:32:37;16.33;;;15.33;;
7231;SDS011;3657;49.630;11.018;2023-04-21T08:35:03;16.30;;;15.40;;
7231;SDS011;3657;49.630;11.018;2023-04-21T08:37:31;15.03;;;14.23;;
7231;SDS011;3657;49.630;11.018;2023-04-21T08:39:57;17.00;;;15.90;;
7231;SDS011;3657;49.630;11.018;2023-04-21T08:42:24;15.67;;;14.87;;
7231;SDS011;3657;49.630;11.018;2023-04-21T08:44:51;16.30;;;15.37;;
7231;SDS011;3657;49.630;11.018;2023-04-21T08:47:18;14.87;;;14.07;;
7231;SDS011;3657;49.630;11.018;2023-04-21T08:49:47;14.10;;;13.40;;
7231;SDS011;3657;49.630;11.018;2023-04-21T08:52:18;14.07;;;13.33;;
7231;SDS011;3657;49.630;11.018;2023-04-21T08:54:45;13.33;;;12.67;;
7231;SDS011;3657;49.630;11.018;2023-04-21T08:57:15;13.83;;;13.10;;
7231;SDS011;3657;49.630;11.018;2023-04-21T08:59:42;14.90;;;14.07;;
7231;SDS011;3657;49.630;11.018;2023-04-21T09:02:10;15.27;;;14.47;;
7231;SDS011;3657;49.630;11.018;2023-04-21T09:04:41;13.87;;;13.23;;
7231;SDS011;3657;49.630;11.018;2023-04-21T09:07:08;14.37;;;13.77;;
7231;SDS011;3657;49.630;11.018;2023-04-21T09:09:51;15.27;;;14.37;;
7231;SDS011;3657;49.630;11.018;2023-04-21T09:12:18;13.60;;;13.10;;
7231;SDS011;3657;49.630;11.018;2023-04-21T09:14:45;13.27;;;12.67;;
7231;SDS011;3657;49.630;11.018;2023-04-21T09:17:13;13.10;;;12.60;;
7231;SDS011;3657;49.630;11.018;2023-04-21T09:19:42;13.50;;;12.70;;
7231;SDS011;3657;49.630;11.018;2023-04-21T09:22:13;13.37;;;12.73;;
7231;SDS011;3657;49.630;11.018;2023-04-21T09:24:46;13.37;;;12.77;;
7231;SDS011;3657;49.630;11.018;2023-04-21T09:27:14;13.10;;;11.97;;
7231;SDS011;3657;49.630;11.018;2023-04-21T09:29:44;12.03;;;11.47;;
7231;SDS011;3657;49.630;11.018;2023-04-21T09:32:15;12.60;;;11.83;;
7231;SDS011;3657;49.630;11.018;2023-04-21T09:34:44;13.10;;;12.50;;
7231;SDS011;3657;49.630;11.018;2023-04-21T09:37:11;12.63;;;12.13;;
7231;SDS011;3657;49.630;11.018;2023-04-21T09:39:43;12.33;;;11.80;;
7231;SDS011;3657;49.630;11.018;2023-04-21T09:42:10;12.93;;;12.43;;
7231;SDS011;3657;49.630;11.018;2023-04-21T09:44:37;13.00;;;12.20;;
7231;SDS011;3657;49.630;11.018;2023-04-21T09:47:04;12.03;;;11.53;;
7231;SDS011;3657;49.630;11.018;2023-04-21T09:49:34;11.57;;;11.07;;
7231;SDS011;3657;49.630;11.018;2023-04-21T09:52:05;12.50;;;11.73;;
7231;SDS011;3657;49.630;11.018;2023-04-21T09:54:35;13.27;;;12.57;;
7231;SDS011;3657;49.630;11.018;2023-04-21T09:57:03;11.93;;;11.53;;
7231;SDS011;3657;49.630;11.018;2023-04-21T09:59:33;12.93;;;12.43;;
7231;SDS011;3657;49.630;11.018;2023-04-21T10:02:03;12.20;;;11.73;;
7231;SDS011;3657;49.630;11.018;2023-04-21T10:04:31;12.77;;;12.17;;
7231;SDS011;3657;49.630;11.018;2023-04-21T10:06:59;11.87;;;11.33;;
7231;SDS011;3657;49.630;11.018;2023-04-21T10:09:29;11.73;;;11.10;;
7231;SDS011;3657;49.630;11.018;2023-04-21T10:12:00;13.17;;;12.47;;
7231;SDS011;3657;49.630;11.018;2023-04-21T10:14:27;10.47;;;10.17;;
7231;SDS011;3657;49.630;11.018;2023-04-21T10:16:54;12.57;;;12.07;;
7231;SDS011;3657;49.630;11.018;2023-04-21T10:19:22;10.67;;;10.27;;
7231;SDS011;3657;49.630;11.018;2023-04-21T10:21:50;11.77;;;11.27;;
7231;SDS011;3657;49.630;11.018;2023-04-21T10:24:17;11.43;;;11.03;;
7231;SDS011;3657;49.630;11.018;2023-04-21T10:26:45;10.60;;;10.20;;
7231;SDS011;3657;49.630;11.018;2023-04-21T10:29:11;10.17;;;9.77;;
7231;SDS011;3657;49.630;11.018;2023-04-21T10:31:48;11.50;;;10.80;;
7231;SDS011;3657;49.630;11.018;2023-04-21T10:37:09;10.30;;;9.90;;
7231;SDS011;3657;49.630;11.018;2023-04-21T10:39:52;9.63;;;9.33;;
7231;SDS011;3657;49.630;11.018;2023-04-21T10:42:26;11.07;;;10.67;;
7231;SDS011;3657;49.630;11.018;2023-04-21T10:45:01;10.83;;;10.33;;
7231;SDS011;3657;49.630;11.018;2023-04-21T10:47:44;11.13;;;10.73;;
7231;SDS011;3657;49.630;11.018;2023-04-21T10:50:13;9.43;;;9.03;;
7231;SDS011;3657;49.630;11.018;2023-04-21T10:52:43;9.20;;;8.90;;
7231;SDS011;3657;49.630;11.018;2023-04-21T10:55:10;9.23;;;8.93;;
7231;SDS011;3657;49.630;11.018;2023-04-21T10:57:41;9.33;;;9.03;;
7231;SDS011;3657;49.630;11.018;2023-04-21T11:00:10;9.47;;;9.07;;
7231;SDS011;3657;49.630;11.018;2023-04-21T11:02:40;9.10;;;8.80;;
7231;SDS011;3657;49.630;11.018;2023-04-21T11:05:07;8.67;;;8.27;;
7231;SDS011;3657;49.630;11.018;2023-04-21T11:07:35;9.40;;;9.00;;
7231;SDS011;3657;49.630;11.018;2023-04-21T11:10:03;8.20;;;7.93;;
7231;SDS011;3657;49.630;11.018;2023-04-21T11:12:31;8.67;;;8.37;;
7231;SDS011;3657;49.630;11.018;2023-04-21T11:15:03;7.90;;;7.70;;
7231;SDS011;3657;49.630;11.018;2023-04-21T11:17:32;8.40;;;8.10;;
7231;SDS011;3657;49.630;11.018;2023-04-21T11:20:00;8.37;;;8.07;;
7231;SDS011;3657;49.630;11.018;2023-04-21T11:22:28;8.27;;;7.97;;
7231;SDS011;3657;49.630;11.018;2023-04-21T11:24:55;8.30;;;7.93;;
7231;SDS011;3657;49.630;11.018;2023-04-21T11:27:25;7.40;;;7.20;;
7231;SDS011;3657;49.630;11.018;2023-04-21T11:29:52;8.43;;;8.13;;
7231;SDS011;3657;49.630;11.018;2023-04-21T11:32:20;8.37;;;8.07;;
7231;SDS011;3657;49.630;11.018;2023-04-21T11:34:47;9.37;;;8.83;;
7231;SDS011;3657;49.630;11.018;2023-04-21T11:37:14;8.40;;;8.10;;
7231;SDS011;3657;49.630;11.018;2023-04-21T11:39:42;9.10;;;8.53;;
7231;SDS011;3657;49.630;11.018;2023-04-21T11:42:09;8.97;;;8.67;;
7231;SDS011;3657;49.630;11.018;2023-04-21T11:44:36;9.30;;;8.60;;
7231;SDS011;3657;49.630;11.018;2023-04-21T11:47:13;8.30;;;8.07;;
7231;SDS011;3657;49.630;11.018;2023-04-21T11:49:46;9.30;;;8.87;;
7231;SDS011;3657;49.630;11.018;2023-04-21T11:52:19;9.43;;;9.10;;
7231;SDS011;3657;49.630;11.018;2023-04-21T11:54:46;9.17;;;8.87;;
7231;SDS011;3657;49.630;11.018;2023-04-21T11:57:16;8.27;;;7.97;;
7231;SDS011;3657;49.630;11.018;2023-04-21T11:59:44;8.03;;;7.63;;
7231;SDS011;3657;49.630;11.018;2023-04-21T12:02:11;8.90;;;8.50;;
7231;SDS011;3657;49.630;11.018;2023-04-21T12:04:39;7.63;;;7.23;;
7231;SDS011;3657;49.630;11.018;2023-04-21T12:07:07;8.00;;;7.80;;
7231;SDS011;3657;49.630;11.018;2023-04-21T12:09:34;7.63;;;7.43;;
7231;SDS011;3657;49.630;11.018;2023-04-21T12:12:02;7.77;;;7.43;;
7231;SDS011;3657;49.630;11.018;2023-04-21T12:14:32;8.23;;;7.73;;
7231;SDS011;3657;49.630;11.018;2023-04-21T12:16:58;7.93;;;7.60;;
7231;SDS011;3657;49.630;11.018;2023-04-21T12:19:33;7.10;;;6.90;;
7231;SDS011;3657;49.630;11.018;2023-04-21T12:22:01;6.40;;;6.10;;
7231;SDS011;3657;49.630;11.018;2023-04-21T12:24:33;7.17;;;6.97;;
7231;SDS011;3657;49.630;11.018;2023-04-21T12:26:59;7.00;;;6.77;;
7231;SDS011;3657;49.630;11.018;2023-04-21T12:29:26;7.37;;;6.87;;
7231;SDS011;3657;49.630;11.018;2023-04-21T12:31:53;6.57;;;6.37;;
7231;SDS011;3657;49.630;11.018;2023-04-21T12:34:20;6.47;;;6.07;;
7231;SDS011;3657;49.630;11.018;2023-04-21T12:36:46;6.87;;;6.67;;
7231;SDS011;3657;49.630;11.018;2023-04-21T12:39:13;7.23;;;6.97;;
7231;SDS011;3657;49.630;11.018;2023-04-21T12:41:42;6.93;;;6.70;;
7231;SDS011;3657;49.630;11.018;2023-04-21T12:44:09;6.80;;;6.60;;
7231;SDS011;3657;49.630;11.018;2023-04-21T12:46:36;6.57;;;6.37;;
7231;SDS011;3657;49.630;11.018;2023-04-21T12:49:02;6.77;;;6.57;;
7231;SDS011;3657;49.630;11.018;2023-04-21T12:51:31;6.90;;;6.70;;
7231;SDS011;3657;49.630;11.018;2023-04-21T12:53:58;7.60;;;7.40;;
7231;SDS011;3657;49.630;11.018;2023-04-21T12:56:25;6.90;;;6.70;;
7231;SDS011;3657;49.630;11.018;2023-04-21T12:58:53;6.67;;;6.47;;
7231;SDS011;3657;49.630;11.018;2023-04-21T13:01:20;5.83;;;5.63;;
7231;SDS011;3657;49.630;11.018;2023-04-21T13:03:47;7.43;;;7.23;;
7231;SDS011;3657;49.630;11.018;2023-04-21T13:06:13;7.23;;;6.93;;
7231;SDS011;3657;49.630;11.018;2023-04-21T13:08:40;6.73;;;6.53;;
7231;SDS011;3657;49.630;11.018;2023-04-21T13:11:07;6.40;;;6.20;;
7231;SDS011;3657;49.630;11.018;2023-04-21T13:13:33;6.73;;;6.53;;
7231;SDS011;3657;49.630;11.018;2023-04-21T13:16:01;7.10;;;6.80;;
7231;SDS011;3657;49.630;11.018;2023-04-21T13:18:28;5.83;;;5.67;;
7231;SDS011;3657;49.630;11.018;2023-04-21T13:20:55;7.33;;;6.93;;
7231;SDS011;3657;49.630;11.018;2023-04-21T13:23:22;7.07;;;6.87;;
7231;SDS011;3657;49.630;11.018;2023-04-21T13:25:48;6.43;;;6.23;;
7231;SDS011;3657;49.630;11.018;2023-04-21T13:28:17;8.13;;;7.73;;
7231;SDS011;3657;49.630;11.018;2023-04-21T13:30:44;6.90;;;6.70;;
7231;SDS011;3657;49.630;11.018;2023-04-21T13:33:12;7.47;;;7.17;;
7231;SDS011;3657;49.630;11.018;2023-04-21T13:35:39;6.90;;;6.60;;
7231;SDS011;3657;49.630;11.018;2023-04-21T13:38:06;7.00;;;6.80;;
7231;SDS011;3657;49.630;11.018;2023-04-21T13:40:32;7.17;;;6.97;;
7231;SDS011;3657;49.630;11.018;2023-04-21T13:42:59;7.20;;;7.00;;
7231;SDS011;3657;49.630;11.018;2023-04-21T13:45:25;7.13;;;6.80;;
7231;SDS011;3657;49.630;11.018;2023-04-21T13:47:55;6.83;;;6.63;;
7231;SDS011;3657;49.630;11.018;2023-04-21T13:50:23;7.07;;;6.87;;
7231;SDS011;3657;49.630;11.018;2023-04-21T13:52:50;7.30;;;6.90;;
7231;SDS011;3657;49.630;11.018;2023-04-21T13:55:17;7.57;;;7.27;;
7231;SDS011;3657;49.630;11.018;2023-04-21T13:57:44;7.03;;;6.83;;
7231;SDS011;3657;49.630;11.018;2023-04-21T14:00:11;7.40;;;7.00;;
7231;SDS011;3657;49.630;11.018;2023-04-21T14:02:39;7.07;;;6.87;;
7231;SDS011;3657;49.630;11.018;2023-04-21T14:05:06;7.00;;;6.80;;
7231;SDS011;3657;49.630;11.018;2023-04-21T14:07:34;7.37;;;6.97;;
7231;SDS011;3657;49.630;11.018;2023-04-21T14:10:02;6.93;;;6.53;;
7231;SDS011;3657;49.630;11.018;2023-04-21T14:12:29;7.53;;;7.33;;
7231;SDS011;3657;49.630;11.018;2023-04-21T14:14:56;7.83;;;7.63;;
7231;SDS011;3657;49.630;11.018;2023-04-21T14:17:22;8.33;;;8.13;;
7231;SDS011;3657;49.630;11.018;2023-04-21T14:19:49;8.07;;;7.67;;
7231;SDS011;3657;49.630;11.018;2023-04-21T14:22:16;8.03;;;7.73;;
7231;SDS011;3657;49.630;11.018;2023-04-21T14:24:45;8.47;;;8.17;;
7231;SDS011;3657;49.630;11.018;2023-04-21T14:27:11;6.40;;;6.17;;
7231;SDS011;3657;49.630;11.018;2023-04-21T14:29:38;7.23;;;6.93;;
7231;SDS011;3657;49.630;11.018;2023-04-21T14:32:04;7.20;;;7.00;;
7231;SDS011;3657;49.630;11.018;2023-04-21T14:34:31;7.10;;;6.90;;
7231;SDS011;3657;49.630;11.018;2023-04-21T14:36:58;6.50;;;6.30;;
7231;SDS011;3657;49.630;11.018;2023-04-21T14:39:25;6.53;;;6.33;;
7231;SDS011;3657;49.630;11.018;2023-04-21T14:41:53;5.97;;;5.87;;
7231;SDS011;3657;49.630;11.018;2023-04-21T14:44:19;6.70;;;6.20;;
7231;SDS011;3657;49.630;11.018;2023-04-21T14:46:46;6.73;;;6.53;;